createdAt,value
2023-03-08T00:01:55.964Z,8.80
2023-03-08T00:04:22.597Z,6.72
2023-03-08T00:06:49.130Z,6.93
2023-03-08T00:09:16.260Z,7.35
2023-03-08T00:11:43.571Z,6.38
2023-03-08T00:14:10.022Z,6.75
2023-03-08T00:16:36.853Z,6.68
2023-03-08T00:19:03.438Z,7.70
2023-03-08T00:21:30.048Z,5.75
2023-03-08T00:23:56.602Z,7.00
2023-03-08T00:26:23.131Z,6.38
2023-03-08T00:28:49.869Z,6.22
2023-03-08T00:31:16.439Z,6.60
2023-03-08T00:33:42.933Z,5.93
2023-03-08T00:36:14.694Z,6.70
2023-03-08T00:38:41.376Z,5.95
2023-03-08T00:41:08.017Z,6.43
2023-03-08T00:43:34.701Z,5.95
2023-03-08T00:46:04.137Z,6.78
2023-03-08T00:48:30.911Z,6.53
2023-03-08T00:50:57.396Z,6.43
2023-03-08T00:53:24.063Z,5.45
2023-03-08T00:55:52.631Z,5.63
2023-03-08T00:58:20.005Z,5.30
2023-03-08T01:00:47.259Z,5.83
2023-03-08T01:03:14.899Z,5.70
2023-03-08T01:05:47.170Z,5.25
2023-03-08T01:08:14.792Z,5.18
2023-03-08T01:10:47.594Z,5.18
2023-03-08T01:13:14.265Z,5.75
2023-03-08T01:15:41.046Z,4.88
2023-03-08T01:18:07.718Z,5.30
2023-03-08T01:20:35.178Z,4.65
2023-03-08T01:23:02.826Z,5.65
2023-03-08T01:25:29.772Z,5.68
2023-03-08T01:27:57.113Z,5.15
2023-03-08T01:30:24.085Z,4.95
2023-03-08T01:32:50.605Z,5.03
2023-03-08T01:35:18.044Z,5.33
2023-03-08T01:37:50.688Z,4.85
2023-03-08T01:40:17.252Z,4.72
2023-03-08T01:42:43.810Z,4.55
2023-03-08T01:45:47.769Z,6.55
2023-03-08T01:48:15.963Z,4.57
2023-03-08T01:51:15.689Z,4.72
2023-03-08T01:53:42.961Z,4.22
2023-03-08T01:56:13.410Z,3.85
2023-03-08T01:58:43.676Z,4.22
2023-03-08T02:01:10.957Z,4.28
2023-03-08T02:03:37.646Z,5.50
2023-03-08T02:06:05.890Z,5.38
2023-03-08T02:08:33.045Z,5.05
2023-03-08T02:11:01.772Z,4.75
2023-03-08T02:13:28.759Z,4.63
2023-03-08T02:15:57.158Z,5.80
2023-03-08T02:18:23.683Z,4.93
2023-03-08T02:20:50.290Z,5.35
2023-03-08T02:23:20.045Z,5.05
2023-03-08T02:25:59.708Z,4.68
2023-03-08T02:28:27.550Z,4.90
2023-03-08T02:30:55.852Z,5.45
2023-03-08T02:33:22.896Z,4.82
2023-03-08T02:35:50.481Z,4.57
2023-03-08T02:38:19.926Z,4.78
2023-03-08T02:40:46.434Z,4.20
2023-03-08T02:43:13.204Z,4.60
2023-03-08T02:45:39.743Z,5.60
2023-03-08T02:48:08.046Z,5.30
2023-03-08T02:50:34.575Z,5.55
2023-03-08T02:53:01.281Z,5.88
2023-03-08T02:55:27.780Z,4.63
2023-03-08T02:57:54.697Z,5.57
2023-03-08T03:00:21.459Z,5.55
2023-03-08T03:02:48.327Z,6.00
2023-03-08T03:05:14.830Z,4.97
2023-03-08T03:07:43.456Z,4.82
2023-03-08T03:10:15.872Z,5.18
2023-03-08T03:12:43.035Z,6.40
2023-03-08T03:15:13.618Z,5.90
2023-03-08T03:17:41.673Z,5.50
2023-03-08T03:20:09.588Z,5.07
2023-03-08T03:22:37.133Z,5.55
2023-03-08T03:25:06.240Z,5.68
2023-03-08T03:27:32.896Z,4.72
2023-03-08T03:29:59.492Z,5.55
2023-03-08T03:32:27.077Z,4.63
2023-03-08T03:34:54.157Z,5.50
2023-03-08T03:37:21.980Z,4.78
2023-03-08T03:39:49.372Z,4.53
2023-03-08T03:42:17.954Z,5.93
2023-03-08T03:44:51.810Z,5.68
2023-03-08T03:47:21.120Z,5.88
2023-03-08T03:49:52.314Z,5.32
2023-03-08T03:52:20.443Z,4.72
2023-03-08T03:54:56.729Z,4.55
2023-03-08T03:57:23.394Z,5.00
2023-03-08T03:59:50.369Z,4.50
2023-03-08T04:02:17.011Z,4.72
2023-03-08T04:04:50.616Z,6.03
2023-03-08T04:07:20.499Z,5.63
2023-03-08T04:09:55.233Z,5.45
2023-03-08T04:12:21.812Z,4.53
2023-03-08T04:14:49.035Z,4.78
2023-03-08T04:19:52.570Z,4.20
2023-03-08T04:22:20.891Z,4.90
2023-03-08T04:25:00.760Z,4.22
2023-03-08T04:27:43.374Z,4.53
2023-03-08T04:30:11.280Z,4.80
2023-03-08T04:32:38.142Z,5.57
2023-03-08T04:35:05.883Z,4.72
2023-03-08T04:37:34.133Z,4.88
2023-03-08T04:40:06.822Z,4.85
2023-03-08T04:42:37.111Z,5.00
2023-03-08T04:45:04.258Z,5.00
2023-03-08T04:47:33.294Z,5.82
2023-03-08T04:49:59.958Z,5.63
2023-03-08T04:52:26.506Z,5.03
2023-03-08T04:54:53.161Z,6.40
2023-03-08T04:57:22.729Z,5.88
2023-03-08T04:59:51.863Z,6.50
2023-03-08T05:02:19.567Z,6.63
2023-03-08T05:04:47.167Z,8.35
2023-03-08T05:07:13.792Z,5.35
2023-03-08T05:09:42.838Z,5.72
2023-03-08T05:12:09.693Z,5.93
2023-03-08T05:14:56.054Z,6.30
2023-03-08T05:17:24.873Z,5.68
2023-03-08T05:19:51.591Z,6.88
2023-03-08T05:22:22.483Z,6.88
2023-03-08T05:24:51.030Z,6.07
2023-03-08T05:27:18.606Z,6.57
2023-03-08T05:29:46.053Z,7.28
2023-03-08T05:32:13.554Z,6.85
2023-03-08T05:34:40.578Z,6.97
2023-03-08T05:37:10.501Z,6.15
2023-03-08T05:39:39.372Z,6.53
2023-03-08T05:42:14.823Z,7.00
2023-03-08T05:44:43.974Z,7.30
2023-03-08T05:47:13.015Z,6.25
2023-03-08T05:49:39.969Z,6.60
2023-03-08T05:52:07.739Z,6.75
2023-03-08T05:54:35.137Z,6.13
2023-03-08T05:57:06.829Z,7.50
2023-03-08T05:59:34.112Z,6.10
2023-03-08T06:02:03.375Z,6.75
2023-03-08T06:04:36.135Z,6.40
2023-03-08T06:07:02.831Z,6.60
2023-03-08T06:09:35.111Z,7.00
2023-03-08T06:12:02.916Z,6.55
2023-03-08T06:14:29.978Z,8.13
2023-03-08T06:16:57.215Z,6.22
2023-03-08T06:19:29.375Z,7.13
2023-03-08T06:24:23.913Z,7.45
2023-03-08T06:26:51.337Z,9.23
2023-03-08T06:29:17.930Z,8.45
2023-03-08T06:31:44.798Z,12.45
2023-03-08T06:34:12.621Z,13.00
2023-03-08T06:36:39.982Z,21.33
2023-03-08T06:39:06.609Z,29.48
2023-03-08T06:41:33.373Z,20.65
2023-03-08T06:44:02.074Z,13.68
2023-03-08T06:46:28.842Z,11.93
2023-03-08T06:48:55.606Z,8.55
2023-03-08T06:51:22.963Z,6.75
2023-03-08T06:53:50.158Z,6.50
2023-03-08T06:56:20.395Z,6.45
2023-03-08T06:58:46.933Z,7.40
2023-03-08T07:01:13.844Z,5.45
2023-03-08T07:03:40.500Z,6.85
2023-03-08T07:06:09.562Z,7.15
2023-03-08T07:08:37.352Z,7.15
2023-03-08T07:11:04.852Z,7.35
2023-03-08T07:13:31.531Z,7.03
2023-03-08T07:15:58.352Z,7.38
2023-03-08T07:18:25.512Z,6.15
2023-03-08T07:20:53.548Z,7.50
2023-03-08T07:23:20.004Z,8.85
2023-03-08T07:25:46.482Z,6.53
2023-03-08T07:28:13.197Z,7.40
2023-03-08T07:30:39.886Z,8.05
2023-03-08T07:33:06.748Z,7.88
2023-03-08T07:35:33.288Z,6.30
2023-03-08T07:37:59.733Z,6.07
2023-03-08T07:40:26.359Z,6.22
2023-03-08T07:42:52.892Z,7.55
2023-03-08T07:45:42.669Z,8.35
2023-03-08T07:48:09.191Z,7.20
2023-03-08T07:50:36.669Z,6.40
2023-03-08T07:53:03.314Z,6.47
2023-03-08T07:55:30.113Z,8.10
2023-03-08T07:57:56.644Z,7.45
2023-03-08T08:00:23.232Z,7.28
2023-03-08T08:02:49.772Z,7.53
2023-03-08T08:05:16.404Z,7.65
2023-03-08T08:07:46.643Z,7.22
2023-03-08T08:10:13.120Z,6.40
2023-03-08T08:12:39.919Z,7.82
2023-03-08T08:15:07.250Z,7.57
2023-03-08T08:17:33.709Z,7.18
2023-03-08T08:20:00.538Z,8.77
2023-03-08T08:22:27.010Z,9.35
2023-03-08T08:24:53.568Z,8.88
2023-03-08T08:27:20.079Z,7.47
2023-03-08T08:29:46.725Z,8.25
2023-03-08T08:32:13.257Z,9.27
2023-03-08T08:34:39.838Z,9.18
2023-03-08T08:37:06.463Z,8.43
2023-03-08T08:39:33.004Z,10.25
2023-03-08T08:41:59.605Z,9.60
2023-03-08T08:44:26.192Z,10.57
2023-03-08T08:46:52.938Z,8.95
2023-03-08T08:49:19.395Z,10.05
2023-03-08T08:51:45.960Z,10.02
2023-03-08T08:54:12.616Z,9.65
2023-03-08T08:56:39.249Z,9.77
2023-03-08T08:59:05.972Z,10.05
2023-03-08T09:01:33.649Z,8.65
2023-03-08T09:04:00.508Z,10.75
2023-03-08T09:06:28.480Z,9.35
2023-03-08T09:08:57.874Z,8.82
2023-03-08T09:11:25.506Z,10.45
2023-03-08T09:13:52.608Z,8.80
2023-03-08T09:16:23.406Z,8.32
2023-03-08T09:18:50.855Z,8.32
2023-03-08T09:21:18.083Z,7.85
2023-03-08T09:23:45.378Z,8.32
2023-03-08T09:26:12.373Z,8.50
2023-03-08T09:28:39.070Z,9.63
2023-03-08T09:31:08.272Z,8.35
2023-03-08T09:33:34.716Z,9.00
2023-03-08T09:36:01.383Z,9.50
2023-03-08T09:38:27.840Z,8.68
2023-03-08T09:41:33.103Z,9.27
2023-03-08T09:44:33.169Z,9.65
2023-03-08T09:47:13.499Z,9.13
2023-03-08T09:49:44.351Z,9.13
2023-03-08T09:52:17.666Z,8.60
2023-03-08T09:54:46.022Z,8.55
2023-03-08T09:57:24.151Z,8.60
2023-03-08T09:59:55.747Z,8.70
2023-03-08T10:02:36.250Z,8.15
2023-03-08T10:05:24.836Z,8.02
2023-03-08T10:08:00.585Z,8.38
2023-03-08T10:10:34.664Z,8.40
2023-03-08T10:13:24.296Z,9.88
2023-03-08T10:15:54.357Z,9.45
2023-03-08T10:18:39.182Z,10.20
2023-03-08T10:21:09.846Z,8.48
2023-03-08T10:23:38.369Z,10.25
2023-03-08T10:26:09.608Z,10.05
2023-03-08T10:28:36.070Z,10.75
2023-03-08T10:31:16.082Z,8.80
2023-03-08T10:33:42.669Z,9.57
2023-03-08T10:36:21.505Z,8.98
2023-03-08T10:39:00.500Z,9.93
2023-03-08T10:41:29.126Z,9.70
2023-03-08T10:43:56.463Z,9.20
2023-03-08T10:46:28.767Z,9.70
2023-03-08T10:49:05.846Z,8.55
2023-03-08T10:51:32.529Z,10.13
2023-03-08T10:54:01.651Z,12.32
2023-03-08T10:56:38.672Z,9.10
2023-03-08T10:59:07.141Z,9.13
2023-03-08T11:01:35.881Z,10.43
2023-03-08T11:04:15.039Z,8.25
2023-03-08T11:06:42.065Z,8.50
2023-03-08T11:09:38.014Z,8.85
2023-03-08T11:12:04.882Z,8.65
2023-03-08T11:14:31.504Z,8.63
2023-03-08T11:17:13.149Z,8.52
2023-03-08T11:20:01.151Z,8.23
2023-03-08T11:22:50.221Z,10.15
2023-03-08T11:25:20.152Z,8.07
2023-03-08T11:28:05.362Z,8.82
2023-03-08T11:30:43.568Z,8.40
2023-03-08T11:33:32.998Z,6.95
2023-03-08T11:36:18.241Z,9.07
2023-03-08T11:38:51.810Z,7.15
2023-03-08T11:41:29.776Z,8.55
2023-03-08T11:44:26.082Z,8.10
2023-03-08T11:47:24.041Z,8.10
2023-03-08T11:50:15.416Z,6.75
2023-03-08T11:52:53.898Z,7.60
2023-03-08T11:55:31.855Z,7.90
2023-03-08T12:00:40.114Z,5.70
2023-03-08T12:03:18.427Z,6.60
2023-03-08T12:05:52.559Z,7.13
2023-03-08T12:08:29.865Z,5.82
2023-03-08T12:11:07.935Z,6.03
2023-03-08T12:16:31.017Z,6.97
2023-03-08T12:19:19.872Z,6.75
2023-03-08T12:22:01.481Z,5.20
2023-03-08T12:24:52.941Z,6.05
2023-03-08T12:27:26.053Z,6.68
2023-03-08T12:30:16.357Z,4.95
2023-03-08T12:32:44.262Z,6.85
2023-03-08T12:35:22.567Z,6.45
2023-03-08T12:38:03.193Z,5.93
2023-03-08T12:40:48.258Z,6.75
2023-03-08T12:43:32.952Z,6.05
2023-03-08T12:45:59.575Z,6.28
2023-03-08T12:48:29.678Z,6.60
2023-03-08T12:51:18.500Z,6.47
2023-03-08T12:53:50.828Z,6.78
2023-03-08T12:56:29.897Z,6.72
2023-03-08T12:59:02.287Z,6.20
2023-03-08T13:01:43.806Z,5.63
2023-03-08T13:04:40.042Z,4.68
2023-03-08T13:07:21.448Z,4.95
2023-03-08T13:09:54.999Z,4.80
2023-03-08T13:12:39.849Z,4.80
2023-03-08T13:15:12.111Z,5.00
2023-03-08T13:17:41.677Z,5.70
2023-03-08T13:20:24.497Z,6.20
2023-03-08T13:23:01.611Z,5.15
2023-03-08T13:25:41.468Z,4.95
2023-03-08T13:28:46.725Z,5.85
2023-03-08T13:31:20.525Z,4.90
2023-03-08T13:33:58.247Z,5.22
2023-03-08T13:36:26.893Z,4.70
2023-03-08T13:39:02.275Z,4.55
2023-03-08T13:41:48.691Z,4.03
2023-03-08T13:44:21.226Z,3.30
2023-03-08T13:46:51.415Z,3.42
2023-03-08T13:49:27.142Z,2.97
2023-03-08T13:51:57.411Z,1.85
2023-03-08T13:54:28.603Z,1.55
2023-03-08T13:57:00.157Z,0.95
2023-03-08T13:59:27.279Z,0.50
2023-03-08T14:01:54.534Z,0.47
2023-03-08T14:04:30.944Z,0.30
2023-03-08T14:06:59.938Z,0.32
2023-03-08T14:09:27.492Z,0.47
2023-03-08T14:12:06.577Z,0.30
2023-03-08T14:14:37.032Z,0.30
2023-03-08T14:17:05.010Z,0.30
2023-03-08T14:19:36.034Z,0.35
2023-03-08T14:22:10.228Z,0.50
2023-03-08T14:24:37.212Z,0.50
2023-03-08T14:27:31.218Z,0.30
2023-03-08T14:30:17.837Z,0.73
2023-03-08T14:33:14.022Z,0.40
2023-03-08T14:35:45.184Z,0.22
2023-03-08T14:38:32.745Z,0.30
2023-03-08T14:41:03.529Z,0.40
2023-03-08T14:43:30.046Z,0.30
2023-03-08T14:46:05.434Z,0.40
2023-03-08T14:48:36.963Z,0.30
2023-03-08T14:51:25.479Z,0.30
2023-03-08T14:54:00.417Z,0.57
2023-03-08T14:56:29.212Z,0.60
2023-03-08T14:59:00.387Z,0.43
2023-03-08T15:01:32.702Z,0.40
2023-03-08T15:03:59.754Z,0.50
2023-03-08T15:06:32.917Z,0.47
2023-03-08T15:09:00.979Z,0.55
2023-03-08T15:13:55.301Z,0.57
2023-03-08T15:16:21.855Z,0.40
2023-03-08T15:18:48.370Z,0.40
2023-03-08T15:21:20.700Z,0.43
2023-03-08T15:23:47.627Z,0.47
2023-03-08T15:26:18.308Z,0.30
2023-03-08T15:28:44.987Z,0.35
2023-03-08T15:31:11.453Z,1.02
2023-03-08T15:33:37.911Z,0.40
2023-03-08T15:36:05.270Z,0.30
2023-03-08T15:38:31.811Z,0.30
2023-03-08T15:40:58.272Z,0.35
2023-03-08T15:43:24.813Z,0.20
2023-03-08T15:45:51.299Z,0.25
2023-03-08T15:48:18.813Z,0.55
2023-03-08T15:50:45.707Z,0.45
2023-03-08T15:53:18.400Z,0.30
2023-03-08T15:55:50.065Z,0.50
2023-03-08T15:58:16.516Z,0.73
2023-03-08T16:00:43.061Z,0.30
2023-03-08T16:03:13.646Z,0.40
2023-03-08T16:05:40.499Z,0.50
2023-03-08T16:08:07.038Z,0.50
2023-03-08T16:10:35.173Z,0.52
2023-03-08T16:13:01.913Z,0.30
2023-03-08T16:15:28.428Z,0.40
2023-03-08T16:17:54.902Z,0.50
2023-03-08T16:20:21.377Z,0.50
2023-03-08T16:22:47.868Z,0.40
2023-03-08T16:25:14.352Z,0.40
2023-03-08T16:27:40.897Z,0.65
2023-03-08T16:30:08.418Z,0.52
2023-03-08T16:32:34.982Z,0.30
2023-03-08T16:35:01.515Z,0.60
2023-03-08T16:37:28.158Z,0.50
2023-03-08T16:39:55.001Z,0.35
2023-03-08T16:42:22.234Z,0.30
2023-03-08T16:44:51.493Z,0.60
2023-03-08T16:47:19.231Z,0.40
2023-03-08T16:49:46.042Z,0.65
2023-03-08T16:52:14.597Z,0.63
2023-03-08T16:54:41.262Z,0.80
2023-03-08T16:57:18.603Z,0.50
2023-03-08T17:02:17.590Z,0.50
2023-03-08T17:04:44.339Z,0.90
2023-03-08T17:07:11.373Z,0.45
2023-03-08T17:09:39.315Z,0.30
2023-03-08T17:12:06.801Z,0.70
2023-03-08T17:14:34.839Z,0.50
2023-03-08T17:17:02.345Z,0.55
2023-03-08T17:19:28.879Z,0.50
2023-03-08T17:21:55.653Z,0.43
2023-03-08T17:24:22.733Z,0.82
2023-03-08T17:26:52.461Z,0.77
2023-03-08T17:29:19.507Z,0.50
2023-03-08T17:31:46.357Z,0.60
2023-03-08T17:34:12.826Z,0.73
2023-03-08T17:36:39.700Z,0.63
2023-03-08T17:39:06.315Z,0.77
2023-03-08T17:41:32.826Z,0.60
2023-03-08T17:43:59.385Z,0.52
2023-03-08T17:46:26.498Z,0.50
2023-03-08T17:48:54.449Z,1.10
2023-03-08T17:51:24.772Z,0.68
2023-03-08T17:53:51.551Z,0.93
2023-03-08T17:56:23.535Z,0.80
2023-03-08T17:58:50.004Z,0.90
2023-03-08T18:01:18.947Z,1.08
2023-03-08T18:03:46.393Z,0.80
2023-03-08T18:06:24.341Z,0.57
2023-03-08T18:08:51.693Z,1.10
2023-03-08T18:11:18.174Z,1.13
2023-03-08T18:13:44.976Z,0.60
2023-03-08T18:16:11.454Z,0.40
2023-03-08T18:18:38.009Z,0.55
2023-03-08T18:21:13.149Z,0.52
2023-03-08T18:23:41.524Z,0.50
2023-03-08T18:26:08.019Z,0.80
2023-03-08T18:28:34.497Z,0.85
2023-03-08T18:31:06.125Z,0.90
2023-03-08T18:33:32.708Z,1.30
2023-03-08T18:35:59.284Z,0.80
2023-03-08T18:38:25.833Z,0.55
2023-03-08T18:40:52.611Z,0.60
2023-03-08T18:43:19.191Z,1.02
2023-03-08T18:45:53.357Z,0.63
2023-03-08T18:48:21.372Z,0.73
2023-03-08T18:50:47.846Z,0.65
2023-03-08T18:53:15.027Z,0.60
2023-03-08T18:55:52.152Z,0.50
2023-03-08T18:58:18.636Z,1.47
2023-03-08T19:00:45.106Z,1.35
2023-03-08T19:03:11.739Z,0.95
2023-03-08T19:05:38.222Z,1.55
2023-03-08T19:08:04.747Z,0.70
2023-03-08T19:10:33.209Z,0.73
2023-03-08T19:12:59.788Z,0.95
2023-03-08T19:15:26.457Z,0.75
2023-03-08T19:17:57.235Z,0.43
2023-03-08T19:20:24.038Z,0.40
2023-03-08T19:22:50.672Z,0.52
2023-03-08T19:25:17.191Z,0.40
2023-03-08T19:27:43.787Z,0.50
2023-03-08T19:30:11.012Z,0.40
2023-03-08T19:32:37.621Z,0.30
2023-03-08T19:35:04.498Z,0.43
2023-03-08T19:37:31.097Z,0.30
2023-03-08T19:39:58.499Z,0.13
2023-03-08T19:44:52.258Z,0.40
2023-03-08T19:47:19.114Z,0.52
2023-03-08T19:49:45.977Z,0.38
2023-03-08T19:52:13.305Z,0.45
2023-03-08T19:54:40.713Z,0.67
2023-03-08T19:57:07.900Z,0.28
2023-03-08T19:59:34.433Z,0.25
2023-03-08T20:02:00.921Z,0.20
2023-03-08T20:04:31.217Z,0.22
2023-03-08T20:07:01.360Z,0.22
2023-03-08T20:09:28.381Z,0.30
2023-03-08T20:11:58.463Z,0.73
2023-03-08T20:14:26.581Z,0.30
2023-03-08T20:16:53.176Z,0.40
2023-03-08T20:19:19.773Z,0.60
2023-03-08T20:21:46.593Z,0.40
2023-03-08T20:24:13.069Z,0.20
2023-03-08T20:26:39.598Z,0.47
2023-03-08T20:29:06.218Z,0.30
2023-03-08T20:31:33.040Z,0.43
2023-03-08T20:33:59.756Z,0.30
2023-03-08T20:36:26.564Z,0.40
2023-03-08T20:38:53.054Z,0.30
2023-03-08T20:41:21.171Z,0.47
2023-03-08T20:46:17.507Z,0.70
2023-03-08T20:48:46.233Z,0.60
2023-03-08T20:51:17.689Z,0.52
2023-03-08T20:53:44.972Z,0.20
2023-03-08T20:56:16.046Z,0.40
2023-03-08T20:58:43.145Z,0.50
2023-03-08T21:01:12.407Z,0.45
2023-03-08T21:03:39.161Z,0.38
2023-03-08T21:06:23.526Z,0.50
2023-03-08T21:08:50.666Z,0.30
2023-03-08T21:11:17.811Z,0.28
2023-03-08T21:13:48.057Z,0.30
2023-03-08T21:16:16.294Z,0.30
2023-03-08T21:18:43.188Z,0.80
2023-03-08T21:21:17.808Z,0.32
2023-03-08T21:23:44.293Z,0.32
2023-03-08T21:26:12.602Z,0.47
2023-03-08T21:28:40.570Z,0.40
2023-03-08T21:31:10.998Z,0.45
2023-03-08T21:33:37.714Z,0.13
2023-03-08T21:36:04.666Z,0.43
2023-03-08T21:38:31.279Z,0.55
2023-03-08T21:40:57.817Z,0.40
2023-03-08T21:43:24.534Z,0.47
2023-03-08T21:45:51.043Z,0.50
2023-03-08T21:48:17.751Z,1.10
2023-03-08T21:50:44.576Z,0.55
2023-03-08T21:53:11.085Z,0.57
2023-03-08T21:55:41.592Z,0.60
2023-03-08T21:58:09.017Z,0.63
2023-03-08T22:00:35.694Z,0.50
2023-03-08T22:03:02.352Z,1.02
2023-03-08T22:05:30.300Z,0.70
2023-03-08T22:07:57.346Z,1.10
2023-03-08T22:10:23.898Z,1.05
2023-03-08T22:12:50.508Z,1.20
2023-03-08T22:15:17.025Z,1.15
2023-03-08T22:17:43.651Z,1.10
2023-03-08T22:20:11.079Z,1.05
2023-03-08T22:22:38.810Z,1.17
2023-03-08T22:25:07.112Z,1.08
2023-03-08T22:27:34.112Z,1.17
2023-03-08T22:30:00.739Z,0.88
2023-03-08T22:32:27.445Z,1.00
2023-03-08T22:34:54.100Z,1.10
2023-03-08T22:37:21.066Z,0.98
2023-03-08T22:39:47.683Z,1.00
2023-03-08T22:42:16.495Z,0.85
2023-03-08T22:44:43.472Z,1.20
2023-03-08T22:47:10.055Z,0.95
2023-03-08T22:49:36.672Z,1.20
2023-03-08T22:52:03.430Z,0.60
2023-03-08T22:54:30.264Z,0.73
2023-03-08T22:56:56.883Z,1.17
2023-03-08T22:59:23.576Z,1.20
2023-03-08T23:01:50.085Z,0.85
2023-03-08T23:04:16.964Z,0.93
2023-03-08T23:06:44.114Z,0.68
2023-03-08T23:09:11.566Z,0.80
2023-03-08T23:11:39.059Z,1.35
2023-03-08T23:14:09.420Z,1.35
2023-03-08T23:16:36.408Z,0.90
2023-03-08T23:19:03.587Z,1.00
2023-03-08T23:21:30.630Z,1.00
2023-03-08T23:23:57.925Z,1.02
2023-03-08T23:26:26.000Z,0.95
2023-03-08T23:28:57.547Z,0.60
2023-03-08T23:31:27.463Z,0.70
2023-03-08T23:33:54.381Z,1.30
2023-03-08T23:36:24.234Z,0.70
2023-03-08T23:38:51.567Z,0.70
2023-03-08T23:41:18.240Z,0.87
2023-03-08T23:43:45.565Z,0.70
2023-03-08T23:46:14.856Z,0.60
2023-03-08T23:48:41.964Z,0.80
2023-03-08T23:51:12.464Z,0.70
2023-03-08T23:53:39.361Z,0.90
2023-03-08T23:56:06.868Z,0.63
2023-03-08T23:58:33.592Z,0.80
